Time;durP1;ratioP1;P1;durP2;ratioP2;P2;SDS_P1;SDS_P2;PMS_P1;PMS_P2;Temp;Humidity;BMP_temperature;BMP_pressure;BME280_temperature;BME280_humidity;BME280_pressure;Samples;Min_cycle;Max_cycle;Signal;HPM_P1;HPM_P2
2022/09/01 00:01:27;;;;;;;2.53;0.93;;;25.60;47.10;;;;;;5050390;28;20167;-64
2022/09/01 00:03:58;;;;;;;3.28;1.25;;;25.50;47.10;;;;;;5050473;28;20134;-64
2022/09/01 00:06:26;;;;;;;3.03;1.20;;;25.50;47.20;;;;;;5030366;28;20053;-64
2022/09/01 00:08:58;;;;;;;3.50;1.48;;;25.50;47.30;;;;;;5038114;28;20061;-63
2022/09/01 00:11:27;;;;;;;2.53;1.52;;;25.40;47.30;;;;;;5049624;28;20053;-64
2022/09/01 00:13:56;;;;;;;4.88;1.83;;;25.40;47.40;;;;;;5032594;28;20158;-64
2022/09/01 00:16:24;;;;;;;3.08;1.77;;;25.40;47.50;;;;;;5055749;28;20943;-67
2022/09/01 00:18:53;;;;;;;4.72;1.48;;;25.40;47.50;;;;;;5064683;28;20155;-66
2022/09/01 00:21:24;;;;;;;3.17;0.80;;;25.30;48.20;;;;;;5070357;28;20052;-65
2022/09/01 00:23:51;;;;;;;2.25;1.02;;;25.30;47.70;;;;;;5070463;28;20117;-66
2022/09/01 00:26:20;;;;;;;2.70;1.05;;;25.30;47.70;;;;;;5069458;28;20124;-66
2022/09/01 00:28:47;;;;;;;2.42;1.00;;;25.30;47.70;;;;;;5065530;28;20045;-66
2022/09/01 00:31:15;;;;;;;2.25;1.70;;;25.20;47.80;;;;;;5058068;28;20064;-66
2022/09/01 00:33:42;;;;;;;1.13;0.80;;;25.20;48.00;;;;;;5050312;28;20530;-64
2022/09/01 00:36:09;;;;;;;2.72;1.48;;;25.20;48.00;;;;;;5034835;28;20053;-64
2022/09/01 00:38:37;;;;;;;1.88;1.08;;;25.20;48.00;;;;;;5032088;28;20090;-66
2022/09/01 00:41:06;;;;;;;4.57;1.20;;;25.20;47.90;;;;;;5015337;28;20402;-68
2022/09/01 00:43:43;;;;;;;4.15;1.30;;;25.20;48.00;;;;;;5053770;28;20413;-66
2022/09/01 00:46:12;;;;;;;1.27;1.13;;;25.20;48.10;;;;;;5050036;28;20059;-65
2022/09/01 00:48:40;;;;;;;3.22;1.10;;;25.10;48.20;;;;;;5040427;28;20059;-66
2022/09/01 00:51:09;;;;;;;3.55;1.20;;;25.00;48.30;;;;;;5071160;28;20059;-66
2022/09/01 00:53:38;;;;;;;1.65;1.55;;;25.00;48.40;;;;;;5061798;28;20048;-65
2022/09/01 00:56:06;;;;;;;1.73;1.17;;;25.00;48.50;;;;;;5035431;28;20048;-63
2022/09/01 00:58:35;;;;;;;2.20;1.17;;;24.90;48.60;;;;;;5049047;28;20045;-66
2022/09/01 01:01:05;;;;;;;3.95;0.90;;;24.90;48.70;;;;;;5043150;28;20442;-67
2022/09/01 01:03:32;;;;;;;7.28;1.40;;;24.90;48.80;;;;;;5023411;28;20059;-65
2022/09/01 01:06:03;;;;;;;2.03;1.08;;;24.80;48.90;;;;;;5055388;28;20140;-65
2022/09/01 01:08:33;;;;;;;1.83;1.40;;;24.80;49.00;;;;;;5030678;28;20048;-64
2022/09/01 01:11:01;;;;;;;3.03;1.13;;;24.70;49.00;;;;;;5030945;28;20045;-64
2022/09/01 01:13:48;;;;;;;4.32;1.42;;;24.70;49.10;;;;;;5052114;28;20379;-65
2022/09/01 01:16:16;;;;;;;2.15;0.98;;;24.70;49.80;;;;;;5048678;28;20049;-64
2022/09/01 01:18:44;;;;;;;3.75;1.63;;;24.60;49.20;;;;;;5049111;28;20068;-65
2022/09/01 01:24:09;;;;;;;4.68;1.65;;;24.60;49.40;;;;;;5050069;28;20049;-65
2022/09/01 01:26:38;;;;;;;2.83;1.17;;;24.60;49.50;;;;;;5048732;28;20066;-64
2022/09/01 01:29:08;;;;;;;1.42;0.75;;;24.60;49.60;;;;;;5039482;28;20068;-65
2022/09/01 01:31:36;;;;;;;1.33;1.02;;;24.50;49.60;;;;;;5068440;28;20044;-64
2022/09/01 01:34:06;;;;;;;3.50;1.13;;;24.50;49.60;;;;;;5050484;28;20040;-65
2022/09/01 01:36:38;;;;;;;6.07;1.20;;;24.50;49.70;;;;;;5022467;28;20416;-63
2022/09/01 01:39:13;;;;;;;3.70;1.10;;;24.50;50.30;;;;;;5030916;28;20123;-64
2022/09/01 01:41:47;;;;;;;5.38;1.60;;;24.40;49.80;;;;;;5032442;28;20106;-64
2022/09/01 01:44:16;;;;;;;3.03;1.40;;;24.40;49.80;;;;;;5034135;28;20041;-64
2022/09/01 01:46:48;;;;;;;2.35;0.85;;;24.40;49.90;;;;;;5030975;28;20497;-64
2022/09/01 01:49:19;;;;;;;4.80;0.82;;;24.40;50.10;;;;;;5051514;28;20051;-64
2022/09/01 01:51:54;;;;;;;2.13;0.90;;;24.30;50.10;;;;;;5050735;28;20143;-64
2022/09/01 01:54:22;;;;;;;3.60;1.08;;;24.30;50.20;;;;;;5046257;28;20538;-65
2022/09/01 01:56:51;;;;;;;6.72;1.35;;;24.30;50.40;;;;;;5036428;28;20123;-66
2022/09/01 01:59:18;;;;;;;4.80;1.05;;;24.30;50.40;;;;;;5050054;28;20428;-65
2022/09/01 02:01:49;;;;;;;1.95;0.82;;;24.30;50.40;;;;;;5050120;28;20049;-65
2022/09/01 02:04:18;;;;;;;5.10;0.88;;;24.30;50.40;;;;;;5049415;28;20576;-65
2022/09/01 02:06:47;;;;;;;1.33;0.88;;;24.30;50.40;;;;;;5049978;28;20066;-66
2022/09/01 02:09:18;;;;;;;1.52;0.75;;;24.30;50.30;;;;;;5039250;28;20135;-68
2022/09/01 02:11:45;;;;;;;4.07;0.90;;;24.30;50.30;;;;;;5048132;28;20049;-68
2022/09/01 02:14:14;;;;;;;0.88;0.73;;;24.30;50.40;;;;;;5029960;28;20041;-67
2022/09/01 02:16:42;;;;;;;2.38;0.60;;;24.20;50.40;;;;;;5030154;28;20414;-67
2022/09/01 02:19:11;;;;;;;4.50;1.00;;;24.20;50.50;;;;;;5030115;28;20051;-65
2022/09/01 02:21:52;;;;;;;2.47;1.63;;;24.20;50.60;;;;;;5030031;28;20049;-67
2022/09/01 02:24:19;;;;;;;2.17;0.65;;;24.20;50.70;;;;;;5048053;28;20045;-67
2022/09/01 02:26:47;;;;;;;1.67;0.80;;;24.20;50.70;;;;;;5047955;28;20123;-65
2022/09/01 02:29:21;;;;;;;6.75;0.95;;;24.10;50.80;;;;;;5030323;28;20075;-66
2022/09/01 02:31:50;;;;;;;1.88;0.82;;;24.10;51.00;;;;;;5028132;28;20041;-67
2022/09/01 02:34:18;;;;;;;9.18;1.50;;;24.10;50.90;;;;;;5010163;28;20046;-66
2022/09/01 02:36:50;;;;;;;2.15;0.85;;;24.10;51.00;;;;;;5024590;28;20053;-66
2022/09/01 02:39:22;;;;;;;3.70;1.48;;;24.10;51.00;;;;;;5038286;28;20513;-66
2022/09/01 02:41:50;;;;;;;5.10;1.52;;;24.10;51.10;;;;;;5047685;28;20045;-65
2022/09/01 02:44:26;;;;;;;2.45;1.05;;;24.10;51.20;;;;;;5040301;28;20064;-66
2022/09/01 02:46:53;;;;;;;1.02;0.70;;;24.10;51.10;;;;;;5049619;28;20044;-65
2022/09/01 02:49:27;;;;;;;4.50;0.85;;;24.10;51.20;;;;;;5049335;28;20053;-63
2022/09/01 02:52:00;;;;;;;1.23;0.73;;;24.10;51.20;;;;;;5031528;28;20053;-66
2022/09/01 02:54:29;;;;;;;1.33;1.17;;;24.10;51.20;;;;;;5041770;28;20044;-67
2022/09/01 02:56:57;;;;;;;2.17;0.75;;;24.10;51.20;;;;;;5049993;28;20041;-66
2022/09/01 02:59:28;;;;;;;7.18;1.15;;;24.10;51.20;;;;;;5029862;28;20041;-67
2022/09/01 03:01:59;;;;;;;4.68;1.40;;;24.10;51.30;;;;;;5041819;28;20480;-66
2022/09/01 03:04:27;;;;;;;3.60;2.53;;;24.20;51.50;;;;;;5049122;28;20044;-66
2022/09/01 03:06:57;;;;;;;2.63;1.05;;;24.20;51.70;;;;;;5049233;28;20040;-66
2022/09/01 03:09:24;;;;;;;2.50;0.73;;;24.20;51.60;;;;;;5059111;28;20048;-66
2022/09/01 03:11:53;;;;;;;6.07;1.48;;;24.20;51.50;;;;;;5066184;28;20040;-66
2022/09/01 03:14:23;;;;;;;7.43;1.05;;;24.20;51.50;;;;;;5048150;28;20067;-66
2022/09/01 03:16:51;;;;;;;0.63;0.60;;;24.20;51.40;;;;;;5070490;28;20125;-66
2022/09/01 03:19:19;;;;;;;2.05;1.27;;;24.20;51.50;;;;;;5024119;28;20403;-65
2022/09/01 03:21:48;;;;;;;4.55;2.03;;;24.20;51.40;;;;;;5040574;28;20037;-66
2022/09/01 03:24:20;;;;;;;0.88;0.47;;;24.20;51.40;;;;;;5035634;28;20599;-66
2022/09/01 03:26:51;;;;;;;2.15;1.52;;;24.20;51.40;;;;;;5032777;28;20056;-66
2022/09/01 03:29:19;;;;;;;2.13;1.00;;;24.10;51.50;;;;;;5049263;28;20049;-65
2022/09/01 03:31:47;;;;;;;7.85;1.15;;;24.10;51.90;;;;;;5050869;28;20072;-66
2022/09/01 03:34:20;;;;;;;3.35;1.33;;;24.10;51.70;;;;;;5032392;28;20045;-66
2022/09/01 03:36:49;;;;;;;2.22;1.08;;;24.20;51.80;;;;;;5034629;28;20171;-68
2022/09/01 03:39:21;;;;;;;3.08;1.40;;;24.10;51.80;;;;;;5038969;28;20075;-66
2022/09/01 03:41:48;;;;;;;3.80;0.88;;;24.10;51.90;;;;;;5052361;28;20074;-66
2022/09/01 03:44:15;;;;;;;3.53;1.02;;;24.10;52.10;;;;;;5052626;28;20181;-66
2022/09/01 03:46:44;;;;;;;1.27;0.95;;;24.10;52.20;;;;;;5045298;28;20049;-67
2022/09/01 03:49:14;;;;;;;1.42;0.90;;;24.10;52.30;;;;;;5033625;28;20051;-64
2022/09/01 03:51:43;;;;;;;0.60;0.55;;;24.10;52.40;;;;;;5041358;28;20055;-65
2022/09/01 03:54:11;;;;;;;1.23;1.08;;;24.10;52.60;;;;;;5069864;28;20078;-65
2022/09/01 03:56:41;;;;;;;0.90;0.90;;;24.10;52.60;;;;;;5052443;28;20076;-65
2022/09/01 03:59:15;;;;;;;1.67;0.82;;;24.10;52.60;;;;;;5035258;28;20037;-65
2022/09/01 04:01:44;;;;;;;0.93;0.93;;;24.10;52.70;;;;;;5015461;28;20055;-65
2022/09/01 04:04:13;;;;;;;2.08;0.50;;;24.00;52.80;;;;;;5032047;28;20060;-65
2022/09/01 04:06:44;;;;;;;3.20;0.73;;;24.00;52.90;;;;;;5031840;28;20590;-67
2022/09/01 04:09:12;;;;;;;2.63;1.77;;;24.00;53.00;;;;;;5041980;28;20486;-67
2022/09/01 04:11:45;;;;;;;3.47;1.77;;;23.90;53.20;;;;;;5047610;28;20044;-67
2022/09/01 04:14:12;;;;;;;5.78;1.17;;;23.90;53.30;;;;;;5051696;28;20204;-67
2022/09/01 04:19:29;;;;;;;1.20;0.77;;;23.80;53.50;;;;;;5012234;28;20438;-66
2022/09/01 04:22:00;;;;;;;3.60;0.90;;;23.80;53.50;;;;;;5012141;28;20041;-66
2022/09/01 04:24:33;;;;;;;4.18;1.25;;;23.80;53.60;;;;;;5012156;28;20095;-66
2022/09/01 04:27:03;;;;;;;0.70;0.70;;;23.80;53.60;;;;;;5022309;28;20045;-68
2022/09/01 04:29:32;;;;;;;2.25;0.73;;;23.80;53.80;;;;;;5035397;28;20041;-65
2022/09/01 04:32:02;;;;;;;3.88;2.22;;;23.70;53.70;;;;;;5042954;28;20123;-69
2022/09/01 04:34:35;;;;;;;7.00;0.70;;;23.80;53.90;;;;;;5042225;28;20033;-69
2022/09/01 04:37:08;;;;;;;3.90;0.88;;;23.70;53.80;;;;;;5031439;28;20029;-69
2022/09/01 04:39:37;;;;;;;3.85;1.50;;;23.80;53.50;;;;;;5038250;28;20267;-65
2022/09/01 04:42:07;;;;;;;1.38;0.77;;;23.80;53.40;;;;;;5034182;28;20063;-65
2022/09/01 04:44:35;;;;;;;1.02;0.82;;;23.70;53.20;;;;;;5031718;28;20040;-68
2022/09/01 04:47:04;;;;;;;3.75;1.15;;;23.70;53.10;;;;;;5031024;28;20132;-69
2022/09/01 04:49:32;;;;;;;7.65;1.65;;;23.70;53.20;;;;;;5014780;28;20053;-66
2022/09/01 04:52:00;;;;;;;8.77;1.23;;;23.70;53.20;;;;;;5031413;28;20056;-66
2022/09/01 04:54:31;;;;;;;3.78;0.95;;;23.70;53.20;;;;;;5032162;28;20040;-66
2022/09/01 04:56:59;;;;;;;2.10;0.93;;;23.70;53.10;;;;;;5037529;28;20576;-66
2022/09/01 04:59:30;;;;;;;2.45;1.42;;;23.70;53.00;;;;;;5014564;28;20049;-66
2022/09/01 05:02:00;;;;;;;1.23;1.15;;;23.60;53.00;;;;;;5025356;28;20116;-67
2022/09/01 05:04:32;;;;;;;4.70;1.25;;;23.60;53.20;;;;;;5039503;28;20098;-70
2022/09/01 05:07:02;;;;;;;2.60;1.00;;;23.60;53.20;;;;;;5031234;28;20056;-67
2022/09/01 05:09:37;;;;;;;1.65;1.27;;;23.50;53.20;;;;;;5031368;28;20041;-67
2022/09/01 05:12:35;;;;;;;4.35;1.23;;;23.50;53.30;;;;;;5045400;28;20097;-68
2022/09/01 05:15:05;;;;;;;3.20;2.10;;;23.50;53.40;;;;;;5050349;28;20040;-67
2022/09/01 05:17:33;;;;;;;3.38;0.98;;;23.50;53.30;;;;;;5034174;28;20053;-67
2022/09/01 05:20:00;;;;;;;5.15;1.10;;;23.50;53.40;;;;;;5038366;28;20064;-67
2022/09/01 05:22:27;;;;;;;4.80;1.15;;;23.40;53.40;;;;;;5061475;28;20091;-69
2022/09/01 05:25:10;;;;;;;6.05;1.17;;;23.40;53.50;;;;;;5030849;28;20048;-67
2022/09/01 05:27:40;;;;;;;2.45;0.75;;;23.40;53.60;;;;;;5030774;28;20052;-67
2022/09/01 05:30:09;;;;;;;5.47;1.35;;;23.40;54.30;;;;;;5037000;28;20071;-66
2022/09/01 05:32:38;;;;;;;4.15;1.42;;;23.40;53.90;;;;;;5048056;28;20484;-67
2022/09/01 05:35:07;;;;;;;1.35;0.65;;;23.40;54.30;;;;;;5033107;28;20127;-67
2022/09/01 05:37:37;;;;;;;3.88;0.60;;;23.40;54.40;;;;;;5021261;28;20132;-67
2022/09/01 05:40:14;;;;;;;4.55;1.00;;;23.40;55.10;;;;;;5044528;28;20416;-67
2022/09/01 05:42:42;;;;;;;2.78;1.25;;;23.40;54.70;;;;;;5048972;28;20133;-67
2022/09/01 05:45:10;;;;;;;1.67;0.90;;;23.30;54.80;;;;;;5029604;28;20044;-67
2022/09/01 05:47:38;;;;;;;0.82;0.68;;;23.30;54.90;;;;;;5060846;28;20040;-67
2022/09/01 05:50:08;;;;;;;1.52;0.57;;;23.30;55.00;;;;;;5043285;28;20090;-67
2022/09/01 05:52:39;;;;;;;4.30;0.93;;;23.30;55.10;;;;;;5048986;28;20523;-67
2022/09/01 05:55:09;;;;;;;2.13;1.73;;;23.30;55.00;;;;;;5034183;28;20279;-68
2022/09/01 05:57:39;;;;;;;1.08;1.08;;;23.40;55.10;;;;;;5036234;28;20045;-67
2022/09/01 06:00:12;;;;;;;2.78;1.10;;;23.30;55.10;;;;;;5039777;28;20481;-64
2022/09/01 06:02:41;;;;;;;0.63;0.63;;;23.30;55.10;;;;;;5058405;28;20394;-66
2022/09/01 06:05:12;;;;;;;1.75;0.35;;;23.30;55.10;;;;;;5029121;28;20048;-66
2022/09/01 06:07:41;;;;;;;2.78;0.95;;;23.30;55.20;;;;;;5049657;28;20040;-66
2022/09/01 06:10:13;;;;;;;1.13;1.02;;;23.30;55.30;;;;;;5031518;28;20041;-65
2022/09/01 06:12:41;;;;;;;3.30;1.52;;;23.30;55.40;;;;;;5030216;28;20049;-66
2022/09/01 06:15:14;;;;;;;1.60;1.20;;;23.20;55.40;;;;;;5067574;28;20048;-65
2022/09/01 06:17:43;;;;;;;8.82;1.73;;;23.20;55.40;;;;;;5027249;28;20057;-66
2022/09/01 06:20:10;;;;;;;3.42;0.88;;;23.20;55.30;;;;;;5067666;28;20124;-66
2022/09/01 06:22:40;;;;;;;2.88;0.65;;;23.20;55.30;;;;;;5048860;28;20047;-64
2022/09/01 06:25:08;;;;;;;2.05;0.75;;;23.20;55.40;;;;;;5043839;28;20044;-65
2022/09/01 06:27:43;;;;;;;13.68;1.40;;;23.20;55.50;;;;;;5029531;28;20045;-66
2022/09/01 06:30:15;;;;;;;2.35;1.45;;;23.20;55.50;;;;;;5025504;28;20045;-61
2022/09/01 06:32:50;;;;;;;4.75;1.17;;;23.10;55.50;;;;;;5031335;28;20052;-69
2022/09/01 06:35:18;;;;;;;2.83;0.63;;;23.20;55.60;;;;;;5045113;28;20449;-64
2022/09/01 06:37:47;;;;;;;3.70;1.02;;;23.20;55.60;;;;;;5030024;28;20520;-68
2022/09/01 06:40:31;;;;;;;5.13;1.95;;;23.10;55.50;;;;;;5026560;28;20052;-67
2022/09/01 06:43:01;;;;;;;7.07;1.15;;;23.10;55.60;;;;;;5029154;28;20047;-62
2022/09/01 06:45:29;;;;;;;1.92;1.30;;;23.10;55.50;;;;;;5012522;28;20057;-71
2022/09/01 06:47:57;;;;;;;5.38;1.38;;;23.10;55.50;;;;;;5032161;28;20060;-56
2022/09/01 06:50:26;;;;;;;6.93;1.00;;;23.20;55.50;;;;;;5038158;28;20047;-56
2022/09/01 06:53:00;;;;;;;1.40;1.10;;;23.10;55.40;;;;;;5031663;28;20044;-57
2022/09/01 06:55:30;;;;;;;2.35;1.50;;;23.20;55.40;;;;;;5031142;28;20056;-59
2022/09/01 06:57:59;;;;;;;6.57;1.13;;;23.20;55.40;;;;;;5038668;28;20409;-64
2022/09/01 07:00:27;;;;;;;7.72;1.50;;;23.20;55.40;;;;;;5037620;28;20082;-64
2022/09/01 07:02:56;;;;;;;2.47;1.83;;;23.20;55.30;;;;;;5036397;28;20044;-61
2022/09/01 07:05:39;;;;;;;4.50;1.10;;;23.20;55.20;;;;;;5031137;28;20057;-66
2022/09/01 07:08:09;;;;;;;5.35;1.73;;;23.20;55.20;;;;;;5046648;28;20421;-64
2022/09/01 07:10:57;;;;;;;9.52;2.13;;;23.20;55.10;;;;;;5048712;28;20111;-61
2022/09/01 07:13:26;;;;;;;4.28;2.03;;;23.20;55.10;;;;;;5035778;28;20761;-57
2022/09/01 07:15:57;;;;;;;2.97;0.88;;;23.20;55.30;;;;;;5034278;28;20051;-53
2022/09/01 07:18:26;;;;;;;4.32;1.65;;;23.20;55.30;;;;;;5038797;28;20819;-56
2022/09/01 07:20:54;;;;;;;1.20;1.02;;;23.30;56.00;;;;;;5036355;28;20052;-57
2022/09/01 07:23:22;;;;;;;3.90;1.50;;;23.30;55.40;;;;;;5034831;28;20045;-54
2022/09/01 07:25:53;;;;;;;2.25;1.17;;;23.30;55.40;;;;;;5033479;28;20056;-57
2022/09/01 07:28:31;;;;;;;4.45;1.70;;;23.30;55.40;;;;;;5012624;28;20610;-64
2022/09/01 07:31:00;;;;;;;4.88;1.70;;;23.30;55.40;;;;;;5041996;28;20633;-62
2022/09/01 07:33:29;;;;;;;3.28;1.23;;;23.30;55.40;;;;;;5038525;28;20095;-61
2022/09/01 07:35:57;;;;;;;3.97;1.67;;;23.30;55.40;;;;;;5050547;28;20148;-65
2022/09/01 07:38:27;;;;;;;4.15;1.63;;;23.30;55.40;;;;;;5037693;28;20604;-59
2022/09/01 07:40:56;;;;;;;2.22;1.48;;;23.40;55.40;;;;;;5032973;28;20033;-57
2022/09/01 07:43:43;;;;;;;2.28;1.45;;;23.40;55.30;;;;;;5034331;28;20425;-57
2022/09/01 07:46:14;;;;;;;1.83;1.15;;;23.40;55.20;;;;;;5048634;28;20116;-57
2022/09/01 07:48:42;;;;;;;2.67;1.20;;;23.50;55.20;;;;;;5049641;28;20053;-61
2022/09/01 07:51:12;;;;;;;3.97;1.52;;;23.50;55.10;;;;;;5052217;28;20071;-61
2022/09/01 07:53:40;;;;;;;2.30;1.58;;;23.50;55.00;;;;;;5031911;28;20041;-59
2022/09/01 07:56:12;;;;;;;3.67;1.95;;;23.60;55.00;;;;;;5029231;28;20107;-62
2022/09/01 07:58:47;;;;;;;3.67;2.20;;;23.60;54.90;;;;;;5035645;28;20044;-57
2022/09/01 08:01:18;;;;;;;3.28;1.48;;;23.60;54.90;;;;;;5034861;28;20045;-62
2022/09/01 08:03:49;;;;;;;3.67;1.20;;;23.70;54.80;;;;;;5024042;28;20048;-63
2022/09/01 08:06:19;;;;;;;2.60;1.23;;;23.70;54.80;;;;;;5032915;28;20048;-58
2022/09/01 08:08:49;;;;;;;2.83;1.27;;;23.70;54.70;;;;;;5037634;28;20056;-60
2022/09/01 08:11:18;;;;;;;2.28;1.83;;;23.70;54.60;;;;;;5033139;28;20462;-60
2022/09/01 08:13:47;;;;;;;4.13;1.63;;;23.80;54.50;;;;;;5047707;28;20074;-58
2022/09/01 08:16:15;;;;;;;3.38;1.35;;;23.80;54.40;;;;;;5031889;28;20041;-60
2022/09/01 08:18:43;;;;;;;5.07;1.65;;;23.90;54.30;;;;;;5035527;28;20908;-61
2022/09/01 08:21:15;;;;;;;5.30;1.40;;;24.00;54.20;;;;;;5030215;28;20119;-58
2022/09/01 08:23:58;;;;;;;2.10;1.40;;;24.10;54.00;;;;;;5037861;28;20497;-61
2022/09/01 08:26:26;;;;;;;3.88;2.13;;;24.10;53.80;;;;;;5039825;28;20049;-62
2022/09/01 08:28:56;;;;;;;1.83;1.73;;;24.10;53.60;;;;;;5037169;28;20078;-58
2022/09/01 08:31:32;;;;;;;2.38;1.67;;;24.20;53.50;;;;;;5037920;28;20060;-67
2022/09/01 08:34:03;;;;;;;2.20;1.00;;;24.30;53.40;;;;;;5049412;28;20045;-71
2022/09/01 08:36:31;;;;;;;3.38;2.00;;;24.30;53.10;;;;;;5017764;28;20055;-67
2022/09/01 08:39:00;;;;;;;7.53;2.20;;;24.40;53.00;;;;;;5030738;28;20064;-69
2022/09/01 08:41:38;;;;;;;1.95;1.33;;;24.40;52.80;;;;;;5013018;28;20053;-65
2022/09/01 08:44:17;;;;;;;8.02;1.50;;;24.50;52.60;;;;;;5025629;28;20560;-74
2022/09/01 08:46:45;;;;;;;2.65;1.20;;;24.50;52.40;;;;;;5032771;28;20123;-66
2022/09/01 08:49:18;;;;;;;4.00;0.88;;;24.60;52.30;;;;;;5039398;28;20084;-71
2022/09/01 08:52:30;;;;;;;4.65;1.30;;;24.60;52.70;;;;;;5042646;28;20100;-72
2022/09/01 08:55:05;;;;;;;4.63;1.65;;;24.60;51.90;;;;;;5030781;28;20045;-66
2022/09/01 08:57:35;;;;;;;5.20;1.48;;;24.70;51.80;;;;;;5047439;28;20049;-71
2022/09/01 09:00:24;;;;;;;2.65;1.02;;;24.70;51.80;;;;;;5050648;28;20025;-76
2022/09/01 09:03:04;;;;;;;5.50;2.33;;;24.70;51.60;;;;;;5035862;28;20065;-70
2022/09/01 09:05:43;;;;;;;2.92;1.08;;;24.80;51.60;;;;;;5047158;28;20041;-65
2022/09/01 09:08:28;;;;;;;3.63;2.22;;;24.90;51.60;;;;;;5035077;28;20413;-75
2022/09/01 09:10:59;;;;;;;10.45;1.20;;;24.90;51.50;;;;;;5042284;28;20525;-68
2022/09/01 09:13:39;;;;;;;2.25;1.25;;;24.90;51.90;;;;;;5033078;28;20532;-65
2022/09/01 09:16:10;;;;;;;2.88;1.45;;;25.10;51.00;;;;;;5058574;28;20037;-67
2022/09/01 09:18:44;;;;;;;1.92;1.10;;;25.10;50.70;;;;;;5048971;28;20090;-69
2022/09/01 09:21:17;;;;;;;4.45;1.17;;;25.20;50.50;;;;;;5025161;28;20059;-67
2022/09/01 09:23:48;;;;;;;6.18;1.50;;;25.30;50.40;;;;;;5047117;28;20091;-63
2022/09/01 09:26:19;;;;;;;5.43;1.80;;;25.30;50.20;;;;;;5049647;28;20033;-63
2022/09/01 09:28:48;;;;;;;2.95;1.05;;;25.30;50.00;;;;;;5046830;28;20045;-63
2022/09/01 09:31:31;;;;;;;8.93;1.55;;;25.40;50.00;;;;;;5047390;28;20033;-63
2022/09/01 09:33:59;;;;;;;2.10;1.65;;;25.50;49.80;;;;;;5039244;28;20135;-65
2022/09/01 09:36:33;;;;;;;2.67;1.55;;;25.50;49.60;;;;;;5046966;28;20037;-64
2022/09/01 09:39:11;;;;;;;1.27;1.17;;;25.50;49.50;;;;;;5051012;28;20071;-65
2022/09/01 09:41:40;;;;;;;2.90;1.42;;;25.60;49.50;;;;;;5046950;28;20061;-64
2022/09/01 09:44:19;;;;;;;2.65;1.40;;;25.60;49.30;;;;;;5047427;28;20033;-64
2022/09/01 09:46:48;;;;;;;7.57;1.58;;;25.70;49.00;;;;;;5046748;28;20464;-62
2022/09/01 09:49:19;;;;;;;5.57;0.82;;;25.80;48.70;;;;;;5048094;28;20124;-65
2022/09/01 09:51:49;;;;;;;6.85;1.58;;;25.80;48.70;;;;;;5043636;28;20049;-64
2022/09/01 09:54:21;;;;;;;2.58;1.15;;;25.80;48.40;;;;;;5046431;28;20037;-64
2022/09/01 09:57:02;;;;;;;3.05;1.10;;;25.90;48.40;;;;;;5042779;28;20194;-64
2022/09/01 09:59:31;;;;;;;2.03;1.40;;;25.90;48.40;;;;;;5057508;28;20114;-62
2022/09/01 10:02:14;;;;;;;6.18;1.67;;;25.90;48.40;;;;;;5047975;28;20049;-63
2022/09/01 10:04:41;;;;;;;16.20;1.88;;;26.00;48.40;;;;;;5047430;28;20041;-64
2022/09/01 10:07:28;;;;;;;4.50;1.35;;;26.00;48.30;;;;;;5046938;28;20056;-63
2022/09/01 10:09:55;;;;;;;;;;;26.00;48.20;;;;;;5045618;28;20072;-64
2022/09/01 10:12:24;;;;;;;3.65;1.33;;;26.00;48.30;;;;;;5047488;28;19928;-63
2022/09/01 10:14:55;;;;;;;4.72;1.08;;;26.10;48.20;;;;;;5030733;28;20053;-63
2022/09/01 10:17:33;;;;;;;23.83;2.90;;;26.10;48.10;;;;;;5047578;28;20080;-64
2022/09/01 10:20:07;;;;;;;5.30;0.80;;;26.20;47.90;;;;;;5047780;28;20052;-64
2022/09/01 10:22:36;;;;;;;7.88;1.10;;;26.20;47.90;;;;;;5060986;28;20044;-64
2022/09/01 10:25:04;;;;;;;2.70;1.10;;;26.30;47.80;;;;;;5047802;28;20048;-64
2022/09/01 10:27:35;;;;;;;3.55;1.25;;;26.40;47.60;;;;;;5045904;28;20044;-65
2022/09/01 10:30:08;;;;;;;2.15;1.15;;;26.40;47.50;;;;;;5050186;28;20045;-64
2022/09/01 10:32:40;;;;;;;4.00;1.20;;;26.50;47.30;;;;;;5046877;28;20135;-64
2022/09/01 10:35:11;;;;;;;3.95;1.23;;;26.60;47.30;;;;;;5048703;28;20064;-64
2022/09/01 10:37:39;;;;;;;6.05;1.50;;;26.60;47.10;;;;;;5046398;28;20049;-64
2022/09/01 10:40:33;;;;;;;6.15;1.50;;;26.70;47.00;;;;;;5047059;28;20040;-64
2022/09/01 10:43:26;;;;;;;2.50;0.95;;;26.90;47.00;;;;;;5045877;28;20041;-64
2022/09/01 10:45:54;;;;;;;1.75;1.63;;;27.00;46.80;;;;;;5046829;28;20041;-64
2022/09/01 10:48:29;;;;;;;5.80;1.10;;;27.00;46.50;;;;;;5046285;28;20037;-64
2022/09/01 10:51:29;;;;;;;1.38;0.80;;;27.10;46.40;;;;;;5047129;28;20041;-64
2022/09/01 10:53:58;;;;;;;4.68;1.10;;;27.20;46.40;;;;;;5041500;28;20417;-65
2022/09/01 10:56:38;;;;;;;6.20;0.90;;;27.20;46.30;;;;;;5046686;28;20053;-65
2022/09/01 10:59:08;;;;;;;1.95;1.25;;;27.30;46.00;;;;;;5030217;28;20581;-65
2022/09/01 11:02:09;;;;;;;10.15;1.77;;;27.30;45.70;;;;;;5045864;28;20065;-64
2022/09/01 11:05:16;;;;;;;3.55;0.77;;;27.30;45.50;;;;;;5028511;28;20051;-64
2022/09/01 11:07:45;;;;;;;2.10;0.40;;;27.40;45.20;;;;;;5048190;28;20091;-65
2022/09/01 11:10:30;;;;;;;2.60;0.38;;;27.30;45.00;;;;;;5045642;28;20067;-64
2022/09/01 11:13:39;;;;;;;6.40;0.52;;;27.40;45.00;;;;;;5049491;28;20094;-64
2022/09/01 11:16:28;;;;;;;1.88;1.15;;;27.40;44.90;;;;;;5036375;28;20139;-65
2022/09/01 11:18:58;;;;;;;2.28;0.40;;;27.40;44.90;;;;;;5052525;28;20068;-64
2022/09/01 11:21:29;;;;;;;3.08;0.57;;;27.40;44.80;;;;;;5046957;28;20688;-64
2022/09/01 11:24:29;;;;;;;2.80;0.50;;;27.50;44.60;;;;;;5050128;28;20037;-64
2022/09/01 11:26:56;;;;;;;2.13;0.73;;;27.50;44.60;;;;;;5045738;28;20099;-63
2022/09/01 11:29:52;;;;;;;5.68;0.32;;;27.50;44.60;;;;;;5056228;28;20049;-64
2022/09/01 11:32:20;;;;;;;2.67;1.03;;;27.60;44.50;;;;;;5030851;28;20045;-64
2022/09/01 11:34:49;;;;;;;2.47;0.50;;;27.70;44.50;;;;;;5045675;28;20052;-63
2022/09/01 11:37:22;;;;;;;1.25;0.60;;;27.70;44.30;;;;;;5047567;28;20048;-65
2022/09/01 11:39:54;;;;;;;1.98;0.50;;;27.80;44.00;;;;;;5047121;28;20528;-66
2022/09/01 11:42:26;;;;;;;1.60;0.40;;;27.80;43.60;;;;;;5049637;28;20049;-65
2022/09/01 11:44:59;;;;;;;0.73;0.50;;;27.90;43.30;;;;;;5048807;28;20433;-65
2022/09/01 11:47:31;;;;;;;16.38;0.30;;;27.90;42.90;;;;;;5047844;28;20585;-64
2022/09/01 11:50:01;;;;;;;0.93;0.30;;;28.00;42.60;;;;;;5049440;28;20126;-65
2022/09/01 11:52:32;;;;;;;1.02;0.30;;;28.00;42.10;;;;;;5048697;28;20043;-64
2022/09/01 11:54:59;;;;;;;0.90;0.47;;;28.10;41.80;;;;;;5048617;28;20056;-65
2022/09/01 11:57:29;;;;;;;2.67;0.20;;;28.20;42.20;;;;;;5048350;28;20041;-65
2022/09/01 11:59:58;;;;;;;2.83;0.30;;;28.30;41.30;;;;;;5048479;28;20087;-64
2022/09/01 12:02:32;;;;;;;0.45;0.10;;;28.30;41.00;;;;;;5047286;28;20041;-64
2022/09/01 12:05:00;;;;;;;2.50;0.43;;;28.40;40.80;;;;;;5049280;28;20727;-65
2022/09/01 12:07:41;;;;;;;2.90;0.40;;;28.40;40.70;;;;;;5035147;28;20053;-58
2022/09/01 12:10:19;;;;;;;0.50;0.40;;;28.40;40.40;;;;;;5055320;28;20053;-58
2022/09/01 12:12:46;;;;;;;0.43;0.20;;;28.50;40.30;;;;;;5046308;28;20052;-58
2022/09/01 12:15:20;;;;;;;2.95;0.30;;;28.50;40.20;;;;;;5048467;28;20060;-56
2022/09/01 12:17:47;;;;;;;4.28;0.50;;;28.60;40.20;;;;;;5041890;28;20051;-63
2022/09/01 12:20:28;;;;;;;0.82;0.40;;;28.60;40.00;;;;;;5048772;28;20041;-62
2022/09/01 12:22:58;;;;;;;8.02;0.43;;;28.70;39.90;;;;;;5042627;28;20433;-62
2022/09/01 12:25:27;;;;;;;0.35;0.20;;;28.80;39.70;;;;;;5049956;28;20671;-62
2022/09/01 12:27:54;;;;;;;1.33;0.38;;;28.80;39.40;;;;;;5051131;28;20061;-61
2022/09/01 12:30:23;;;;;;;1.35;0.20;;;28.90;39.40;;;;;;5047941;28;20037;-61
2022/09/01 12:32:50;;;;;;;3.47;0.25;;;28.90;39.50;;;;;;5048701;28;20037;-61
2022/09/01 12:35:21;;;;;;;3.70;0.20;;;29.00;39.60;;;;;;5048047;28;20131;-61
2022/09/01 12:37:49;;;;;;;1.27;0.30;;;29.10;39.60;;;;;;5039548;28;20860;-61
2022/09/01 12:40:32;;;;;;;0.20;0.10;;;29.20;39.50;;;;;;5048600;28;20420;-62
2022/09/01 12:43:00;;;;;;;3.80;0.47;;;29.30;39.30;;;;;;5048292;28;20076;-61
2022/09/01 12:45:38;;;;;;;5.03;0.40;;;29.30;39.30;;;;;;5047600;28;20055;-62
2022/09/01 12:48:05;;;;;;;2.88;0.30;;;29.40;39.50;;;;;;5048267;28;20572;-61
2022/09/01 12:50:45;;;;;;;0.70;0.30;;;29.50;39.90;;;;;;5056929;28;20386;-66
2022/09/01 12:53:23;;;;;;;1.13;0.25;;;29.60;40.20;;;;;;5052368;28;20064;-58
2022/09/01 12:56:03;;;;;;;1.45;0.80;;;29.60;40.60;;;;;;5046078;28;20136;-66
2022/09/01 12:58:31;;;;;;;0.50;0.47;;;29.70;40.80;;;;;;5046430;28;20095;-64
2022/09/01 13:01:03;;;;;;;1.90;0.25;;;29.70;40.90;;;;;;5049118;28;20417;-66
2022/09/01 13:03:31;;;;;;;2.15;0.28;;;29.80;40.90;;;;;;5048508;28;20128;-63
2022/09/01 13:05:59;;;;;;;0.30;0.30;;;29.90;40.90;;;;;;5048398;28;20040;-62
2022/09/01 13:08:28;;;;;;;0.22;0.20;;;29.90;41.00;;;;;;5047404;28;20520;-62
2022/09/01 13:10:59;;;;;;;1.50;0.20;;;30.00;40.90;;;;;;5050472;28;20033;-63
2022/09/01 13:13:26;;;;;;;0.60;0.20;;;30.00;40.90;;;;;;5048130;28;20509;-64
2022/09/01 13:15:56;;;;;;;0.20;0.20;;;30.10;40.60;;;;;;5048504;28;20041;-69
2022/09/01 13:18:24;;;;;;;1.10;0.20;;;30.20;40.70;;;;;;5048795;28;20049;-65